Time;durP1;ratioP1;P1;durP2;ratioP2;P2;SDS_P1;SDS_P2;PMS_P1;PMS_P2;Temp;Humidity;BMP_temperature;BMP_pressure;BME280_temperature;BME280_humidity;BME280_pressure;Samples;Min_cycle;Max_cycle;Signal;HPM_P1;HPM_P2
2022/11/26 00:04:56;;;;;;;48.28;17.58;;;;;;;6.40;89.92;101317.69;10489583;28;20044;-78
2022/11/26 00:10:00;;;;;;;46.85;16.58;;;;;;;6.46;89.61;101329.88;10500966;28;20106;-78
2022/11/26 00:15:15;;;;;;;45.22;19.60;;;;;;;6.53;89.19;101342.84;10491456;28;20052;-79
2022/11/26 00:20:19;;;;;;;41.35;20.15;;;;;;;6.51;89.68;101339.38;10474979;28;20482;-78
2022/11/26 00:25:26;;;;;;;50.88;19.77;;;;;;;6.56;89.09;101332.00;10478472;28;20044;-78
2022/11/26 00:30:30;;;;;;;47.83;18.10;;;;;;;6.21;89.94;101330.19;10490359;28;20045;-78
2022/11/26 00:35:34;;;;;;;50.10;19.30;;;;;;;6.45;89.28;101350.34;10496741;28;20049;-79
2022/11/26 00:40:36;;;;;;;47.47;19.55;;;;;;;6.37;89.69;101348.06;10495737;28;20043;-79
2022/11/26 00:45:41;;;;;;;39.78;17.67;;;;;;;6.20;89.75;101356.00;10496423;28;20114;-79
2022/11/26 00:50:48;;;;;;;46.45;16.77;;;;;;;6.21;89.34;101360.41;10488989;28;20455;-79
2022/11/26 00:55:50;;;;;;;49.15;20.42;;;;;;;6.29;88.43;101360.91;10495023;28;20070;-79
2022/11/26 01:00:56;;;;;;;50.60;20.45;;;;;;;6.18;89.40;101361.41;10469124;28;20033;-78
2022/11/26 01:05:59;;;;;;;52.28;18.25;;;;;;;6.27;88.73;101370.78;10492521;28;20053;-79
2022/11/26 01:11:05;;;;;;;41.22;19.38;;;;;;;6.26;89.10;101373.53;10502340;28;20067;-78
2022/11/26 01:16:20;;;;;;;45.20;17.75;;;;;;;6.17;90.45;101393.47;10482873;28;20488;-78
2022/11/26 01:21:25;;;;;;;51.30;18.05;;;;;;;6.24;89.91;101402.09;10485794;28;20440;-78
2022/11/26 01:26:33;;;;;;;43.85;16.75;;;;;;;6.19;89.90;101404.94;10482850;28;20044;-78
2022/11/26 01:31:38;;;;;;;45.08;19.45;;;;;;;6.21;90.25;101420.91;10487292;28;20048;-79
2022/11/26 01:36:41;;;;;;;44.53;19.10;;;;;;;6.05;91.14;101421.59;10473045;28;20116;-78
2022/11/26 01:41:51;;;;;;;44.00;16.17;;;;;;;5.90;92.03;101427.66;10485024;28;20033;-79
2022/11/26 01:46:56;;;;;;;42.40;17.30;;;;;;;6.21;90.19;101426.25;10481745;28;20052;-78
2022/11/26 01:52:04;;;;;;;34.72;14.90;;;;;;;5.91;91.66;101442.69;10488154;28;20051;-79
2022/11/26 01:57:13;;;;;;;42.63;17.35;;;;;;;5.86;91.73;101453.56;10488053;28;20421;-78
2022/11/26 02:02:17;;;;;;;46.30;19.02;;;;;;;5.85;91.98;101450.97;10483191;28;20036;-78
2022/11/26 02:07:20;;;;;;;37.05;15.80;;;;;;;5.90;91.54;101457.84;10484674;28;20142;-78
2022/11/26 02:12:23;;;;;;;41.65;18.55;;;;;;;5.70;92.46;101465.84;10488013;28;20052;-78
2022/11/26 02:17:34;;;;;;;46.10;20.50;;;;;;;5.65;93.08;101470.50;10502358;28;20044;-79
2022/11/26 02:23:01;;;;;;;49.72;21.05;;;;;;;5.72;92.17;101466.63;10484341;28;20143;-78
2022/11/26 02:28:17;;;;;;;42.38;17.10;;;;;;;5.79;91.17;101456.56;10466633;28;20095;-78
2022/11/26 02:33:27;;;;;;;46.50;19.60;;;;;;;5.84;91.02;101466.13;10490303;28;20041;-79
2022/11/26 02:38:31;;;;;;;33.60;13.90;;;;;;;5.59;91.79;101474.28;10494547;28;20044;-78
2022/11/26 02:43:36;;;;;;;44.85;19.20;;;;;;;6.07;89.81;101482.91;10489343;28;20064;-79
2022/11/26 02:48:44;;;;;;;47.63;18.73;;;;;;;5.99;90.04;101483.22;10464168;28;20049;-80
2022/11/26 02:53:49;;;;;;;48.53;19.70;;;;;;;5.91;90.17;101491.56;10473295;28;20083;-80
2022/11/26 02:58:54;;;;;;;49.30;19.38;;;;;;;6.29;88.22;101493.47;10492916;28;20401;-81
2022/11/26 03:04:04;;;;;;;43.13;18.65;;;;;;;5.92;89.26;101493.31;10514747;28;20044;-79
2022/11/26 03:09:07;;;;;;;41.92;19.38;;;;;;;6.09;88.66;101503.25;10533590;28;20048;-79
2022/11/26 03:14:10;;;;;;;49.10;19.95;;;;;;;5.93;89.38;101496.84;10518816;28;20049;-78
2022/11/26 03:19:14;;;;;;;43.63;16.77;;;;;;;5.84;89.95;101506.13;10492793;28;20056;-78
2022/11/26 03:24:17;;;;;;;43.75;18.70;;;;;;;6.09;87.90;101508.56;10469792;22;20128;-77
2022/11/26 03:29:20;;;;;;;43.63;16.45;;;;;;;5.78;89.16;101503.69;10446140;28;20122;-77
2022/11/26 03:34:24;;;;;;;35.65;15.60;;;;;;;5.63;89.47;101507.03;10422742;28;20093;-77
2022/11/26 03:39:27;;;;;;;40.60;17.13;;;;;;;5.82;88.68;101507.97;10378100;28;20056;-77
2022/11/26 03:44:30;;;;;;;38.90;14.45;;;;;;;5.91;87.34;101504.91;10358696;28;20046;-77
2022/11/26 03:49:34;;;;;;;40.30;18.00;;;;;;;6.14;86.69;101500.34;10372468;28;20076;-76
2022/11/26 03:54:37;;;;;;;46.05;19.48;;;;;;;6.15;86.40;101500.28;10374877;28;20564;-77
2022/11/26 03:59:40;;;;;;;49.22;19.10;;;;;;;6.02;87.13;101500.91;10379301;28;20089;-77
2022/11/26 04:04:44;;;;;;;39.47;17.70;;;;;;;5.93;87.67;101508.38;10377371;28;20133;-77
2022/11/26 04:09:47;;;;;;;44.03;18.30;;;;;;;5.90;87.91;101507.66;10372016;28;20080;-77
2022/11/26 04:14:50;;;;;;;47.97;20.00;;;;;;;6.04;87.52;101509.72;10405789;28;20069;-77
2022/11/26 04:19:54;;;;;;;50.80;20.10;;;;;;;5.95;87.75;101510.97;10375046;28;20549;-77
2022/11/26 04:24:57;;;;;;;37.35;15.48;;;;;;;5.69;88.92;101526.28;10388045;28;20129;-77
2022/11/26 04:29:59;;;;;;;63.88;24.63;;;;;;;5.68;90.01;101537.91;10381548;28;20052;-77
2022/11/26 04:35:04;;;;;;;55.35;22.90;;;;;;;5.90;89.43;101529.00;10387624;28;20073;-77
2022/11/26 04:40:08;;;;;;;60.05;24.08;;;;;;;6.09;87.93;101542.41;10371564;28;20077;-77
2022/11/26 04:45:11;;;;;;;51.47;22.13;;;;;;;6.05;88.12;101551.44;10403475;28;20049;-77
2022/11/26 04:50:16;;;;;;;67.55;24.92;;;;;;;6.02;88.51;101556.94;10374409;28;20072;-76
2022/11/26 04:55:19;;;;;;;59.35;25.27;;;;;;;5.87;88.96;101556.66;10386595;28;20115;-76
2022/11/26 05:00:22;;;;;;;56.10;20.45;;;;;;;5.72;89.69;101578.63;10398726;28;20128;-77
2022/11/26 05:05:26;;;;;;;67.05;24.13;;;;;;;5.99;88.63;101575.72;10381308;28;20050;-77
2022/11/26 05:10:29;;;;;;;68.38;25.13;;;;;;;6.01;88.01;101577.41;10401960;28;20041;-77
2022/11/26 05:15:32;;;;;;;64.60;22.42;;;;;;;6.03;88.34;101586.19;10377493;28;20482;-77
2022/11/26 05:20:36;;;;;;;67.95;25.08;;;;;;;5.82;88.75;101593.31;10401839;28;20125;-77
2022/11/26 05:25:39;;;;;;;62.50;24.00;;;;;;;5.72;89.54;101603.47;10391064;28;20132;-77
2022/11/26 05:30:42;;;;;;;68.65;25.25;;;;;;;5.73;89.24;101607.91;10401466;28;20125;-77
2022/11/26 05:35:46;;;;;;;64.07;24.88;;;;;;;5.56;90.49;101598.84;10396807;28;20045;-77
2022/11/26 05:40:49;;;;;;;74.50;25.48;;;;;;;5.49;90.72;101611.56;10373375;28;20045;-77
2022/11/26 05:45:52;;;;;;;70.32;22.92;;;;;;;5.69;89.60;101627.63;10384360;28;20081;-77
2022/11/26 05:50:58;;;;;;;68.60;26.27;;;;;;;5.75;89.31;101621.16;10386323;28;20042;-77
2022/11/26 05:56:01;;;;;;;73.10;24.42;;;;;;;5.47;90.67;101634.75;10396253;28;20645;-77
2022/11/26 06:01:08;;;;;;;67.75;24.23;;;;;;;5.57;89.53;101632.56;10400528;28;20136;-76
2022/11/26 06:06:12;;;;;;;71.30;27.05;;;;;;;5.35;90.46;101641.44;10414629;28;20050;-77
2022/11/26 06:11:15;;;;;;;73.72;27.45;;;;;;;5.73;88.97;101645.25;10405520;28;20068;-77
2022/11/26 06:16:17;;;;;;;69.95;25.30;;;;;;;5.48;90.26;101652.47;10392161;28;20046;-77
2022/11/26 06:21:22;;;;;;;59.15;23.45;;;;;;;5.57;89.54;101654.78;10397158;28;20064;-77
2022/11/26 06:26:25;;;;;;;59.33;25.48;;;;;;;5.73;88.86;101665.66;10401811;28;20496;-76
2022/11/26 06:31:27;;;;;;;66.97;26.50;;;;;;;5.72;88.41;101669.28;10387298;28;20072;-76
2022/11/26 06:36:32;;;;;;;65.65;26.80;;;;;;;5.91;87.48;101669.41;10385064;28;20092;-77
2022/11/26 06:41:34;;;;;;;71.00;28.27;;;;;;;6.09;87.06;101676.66;10396992;28;20201;-76
2022/11/26 06:46:37;;;;;;;88.68;29.88;;;;;;;6.15;86.80;101687.06;10378432;28;20046;-76
2022/11/26 06:51:41;;;;;;;73.95;27.33;;;;;;;5.82;88.29;101699.13;10380843;28;20111;-76
2022/11/26 06:56:44;;;;;;;83.05;31.42;;;;;;;5.87;88.06;101699.78;10377628;28;20480;-76
2022/11/26 07:01:47;;;;;;;96.25;33.97;;;;;;;6.03;87.47;101700.03;10399071;28;20123;-76
2022/11/26 07:06:51;;;;;;;97.20;31.85;;;;;;;6.12;86.87;101689.84;10396275;28;20052;-76
2022/11/26 07:11:54;;;;;;;78.38;27.35;;;;;;;6.08;86.63;101700.72;10378878;28;20048;-76
2022/11/26 07:16:57;;;;;;;89.15;33.65;;;;;;;6.17;86.22;101703.00;10399551;28;20128;-76
2022/11/26 07:22:01;;;;;;;81.88;30.65;;;;;;;5.87;87.13;101711.34;10396252;28;20124;-76
2022/11/26 07:27:04;;;;;;;85.38;31.80;;;;;;;6.22;85.89;101711.69;10388656;28;20108;-76
2022/11/26 07:32:07;;;;;;;80.80;30.13;;;;;;;6.25;85.57;101721.34;10393778;28;20042;-77
2022/11/26 07:37:11;;;;;;;91.90;32.72;;;;;;;6.22;85.84;101732.16;10401915;28;20069;-77
2022/11/26 07:42:14;;;;;;;101.00;32.67;;;;;;;6.09;85.92;101731.81;10389794;28;20038;-77
2022/11/26 07:47:17;;;;;;;112.68;35.53;;;;;;;6.18;85.67;101737.63;10372945;28;20045;-76
2022/11/26 07:52:21;;;;;;;85.10;32.05;;;;;;;6.11;86.03;101743.28;10383482;28;20100;-76
2022/11/26 07:57:24;;;;;;;83.35;30.85;;;;;;;6.27;85.57;101744.38;10404767;28;20065;-76
2022/11/26 08:02:27;;;;;;;85.65;29.27;;;;;;;6.12;85.60;101740.56;10402333;28;20376;-76
2022/11/26 08:07:31;;;;;;;77.65;30.85;;;;;;;6.10;85.71;101746.88;10410317;28;20092;-76
2022/11/26 08:12:34;;;;;;;91.57;33.63;;;;;;;6.13;85.80;101744.94;10386641;28;20045;-76
2022/11/26 08:17:37;;;;;;;82.95;31.35;;;;;;;5.78;86.94;101748.16;10396811;28;20088;-78
2022/11/26 08:22:41;;;;;;;87.65;33.22;;;;;;;6.36;84.80;101730.69;10402748;28;20085;-77
2022/11/26 08:27:44;;;;;;;90.28;32.95;;;;;;;6.51;83.94;101750.50;10421713;28;20041;-77
2022/11/26 08:32:47;;;;;;;82.75;30.35;;;;;;;6.43;83.71;101765.97;10399999;28;20069;-77
2022/11/26 08:37:51;;;;;;;88.93;32.75;;;;;;;6.51;83.56;101758.50;10406613;28;20045;-76
2022/11/26 08:42:54;;;;;;;85.47;29.55;;;;;;;5.88;85.33;101777.06;10396184;28;20046;-77
2022/11/26 08:47:56;;;;;;;79.25;28.27;;;;;;;6.27;83.80;101773.75;10381055;28;20455;-77
2022/11/26 08:53:01;;;;;;;76.13;29.75;;;;;;;6.50;83.04;101786.16;10393027;28;20041;-77
2022/11/26 08:58:03;;;;;;;83.60;28.33;;;;;;;6.51;82.69;101776.34;10389209;28;20091;-77
2022/11/26 09:03:06;;;;;;;75.93;29.58;;;;;;;6.60;82.67;101771.47;10381782;28;20049;-77
2022/11/26 09:08:10;;;;;;;73.53;29.98;;;;;;;6.68;82.01;101765.81;10389181;28;20041;-77
2022/11/26 09:13:13;;;;;;;83.22;33.53;;;;;;;6.76;81.82;101777.03;10407213;28;20073;-77
2022/11/26 09:18:22;;;;;;;75.25;29.95;;;;;;;6.59;81.54;101779.56;10405806;28;20548;-77
2022/11/26 09:23:26;;;;;;;57.17;26.75;;;;;;;6.37;82.53;101790.25;10389782;28;20049;-76
2022/11/26 09:28:29;;;;;;;56.88;25.90;;;;;;;6.57;81.97;101797.44;10417643;28;20406;-77
2022/11/26 09:33:32;;;;;;;66.72;28.08;;;;;;;6.47;82.96;101807.59;10415524;28;20069;-77
2022/11/26 09:38:37;;;;;;;52.65;22.42;;;;;;;6.88;80.99;101813.03;10408381;28;20048;-75
2022/11/26 09:43:59;;;;;;;60.55;25.35;;;;;;;6.79;81.21;101816.94;10413599;28;20121;-77
2022/11/26 09:49:02;;;;;;;53.08;25.00;;;;;;;6.79;81.48;101816.94;10367296;28;20077;-77
2022/11/26 09:54:15;;;;;;;56.22;25.55;;;;;;;6.92;80.20;101821.81;10397884;28;20049;-77
2022/11/26 09:59:20;;;;;;;52.13;22.58;;;;;;;7.33;78.71;101817.34;10415633;28;20065;-76
2022/11/26 10:04:27;;;;;;;43.28;21.15;;;;;;;8.46;74.94;101810.28;10390779;28;20475;-76
2022/11/26 10:09:48;;;;;;;44.15;18.00;;;;;;;8.42;73.78;101816.69;10393180;28;20107;-76
2022/11/26 10:14:57;;;;;;;34.53;16.75;;;;;;;8.67;73.42;101811.91;10394456;28;20037;-77
2022/11/26 10:20:28;;;;;;;34.90;15.38;;;;;;;8.30;73.02;101813.66;10388479;28;20038;-76
2022/11/26 10:25:41;;;;;;;38.47;15.25;;;;;;;8.66;71.95;101812.81;10382690;28;20042;-77
2022/11/26 10:30:45;;;;;;;36.90;15.27;;;;;;;8.75;71.42;101811.47;10389971;28;20172;-77
2022/11/26 10:35:49;;;;;;;38.78;16.30;;;;;;;8.77;71.82;101814.94;10388389;28;20661;-77
2022/11/26 10:40:53;;;;;;;30.33;14.18;;;;;;;8.47;72.46;101810.19;10387258;28;20116;-77
2022/11/26 10:45:58;;;;;;;28.65;13.93;;;;;;;8.45;72.72;101816.53;10380481;28;20125;-77
2022/11/26 10:51:05;;;;;;;32.92;14.93;;;;;;;9.18;71.29;101812.81;10393896;28;20050;-77
2022/11/26 10:56:17;;;;;;;29.17;13.60;;;;;;;8.66;71.68;101828.03;10391157;28;20498;-77
2022/11/26 11:01:20;;;;;;;28.83;14.48;;;;;;;8.48;72.09;101825.34;10370547;28;20062;-77
2022/11/26 11:06:27;;;;;;;40.92;14.65;;;;;;;9.53;70.20;101826.16;10384566;28;20056;-77
2022/11/26 11:11:31;;;;;;;29.98;12.85;;;;;;;9.41;68.59;101827.72;10383068;28;20380;-77
2022/11/26 11:16:39;;;;;;;27.70;14.45;;;;;;;9.11;70.27;101823.97;10400370;28;20045;-77
2022/11/26 11:21:44;;;;;;;29.67;15.57;;;;;;;9.06;70.48;101821.50;10405539;28;20092;-77
2022/11/26 11:26:56;;;;;;;37.25;14.30;;;;;;;10.32;65.28;101807.47;10403429;28;20103;-77
2022/11/26 11:32:00;;;;;;;26.70;12.98;;;;;;;10.47;64.75;101804.84;10410339;28;20490;-78
2022/11/26 11:37:05;;;;;;;26.27;13.45;;;;;;;9.75;67.14;101807.09;10401641;28;20102;-77
2022/11/26 11:42:23;;;;;;;32.80;15.25;;;;;;;9.31;68.73;101799.63;10380300;28;20052;-77
2022/11/26 11:47:36;;;;;;;29.48;13.55;;;;;;;9.12;70.09;101805.09;10397393;28;20088;-77
2022/11/26 11:52:52;;;;;;;35.88;13.63;;;;;;;9.08;70.65;101805.34;10406784;28;20136;-77
2022/11/26 11:58:12;;;;;;;28.13;13.63;;;;;;;8.77;71.63;101797.06;10405095;28;20049;-77
2022/11/26 12:03:52;;;;;;;29.48;13.38;;;;;;;9.21;70.46;101791.19;10405644;28;20482;-76
2022/11/26 12:09:07;;;;;;;34.10;14.27;;;;;;;9.47;70.22;101792.50;10412922;28;20052;-77
2022/11/26 12:14:17;;;;;;;32.47;12.93;;;;;;;10.17;67.27;101790.44;10403713;28;20045;-77
2022/11/26 12:19:29;;;;;;;31.27;12.40;;;;;;;11.07;64.20;101780.66;10416894;28;20080;-77
2022/11/26 12:24:39;;;;;;;24.92;12.95;;;;;;;10.42;66.42;101791.69;10411064;28;20112;-77
2022/11/26 12:29:49;;;;;;;22.92;10.60;;;;;;;9.90;67.17;101794.66;10410312;28;20434;-77
2022/11/26 12:34:55;;;;;;;27.50;12.48;;;;;;;9.61;69.31;101788.19;10408641;28;20590;-77
2022/11/26 12:40:04;;;;;;;35.42;13.25;;;;;;;9.54;69.38;101784.97;10394060;28;20453;-77
2022/11/26 12:45:18;;;;;;;31.05;11.52;;;;;;;9.09;70.56;101788.31;10400802;28;20129;-77
2022/11/26 12:50:29;;;;;;;28.17;12.73;;;;;;;8.91;71.40;101791.00;10391625;28;20062;-77
2022/11/26 12:55:45;;;;;;;26.02;12.07;;;;;;;8.88;71.75;101799.19;10402440;28;20069;-77
2022/11/26 13:00:52;;;;;;;36.70;12.67;;;;;;;8.72;72.35;101800.91;10400282;28;20120;-77
2022/11/26 13:06:03;;;;;;;27.35;12.18;;;;;;;9.00;72.15;101803.06;10391287;28;20045;-77
2022/11/26 13:11:17;;;;;;;31.50;14.05;;;;;;;9.13;70.98;101792.56;10392057;28;20152;-77
2022/11/26 13:16:33;;;;;;;25.02;11.18;;;;;;;8.84;71.57;101795.81;10388381;28;20077;-77
2022/11/26 13:22:01;;;;;;;28.48;12.80;;;;;;;8.99;71.21;101787.91;10385767;28;20095;-77
2022/11/26 13:27:29;;;;;;;41.92;15.20;;;;;;;9.23;70.58;101781.25;10393152;28;20163;-77
2022/11/26 13:33:08;;;;;;;28.25;10.88;;;;;;;9.22;70.77;101789.41;10398300;28;20129;-77
2022/11/26 13:38:24;;;;;;;26.33;11.20;;;;;;;9.32;70.58;101787.09;10391293;28;20042;-77
2022/11/26 13:43:52;;;;;;;43.25;15.05;;;;;;;9.51;70.09;101788.69;10399792;28;20037;-76
2022/11/26 13:49:02;;;;;;;37.17;14.43;;;;;;;9.61;69.93;101785.53;10397766;28;20057;-77
2022/11/26 13:54:11;;;;;;;30.65;11.02;;;;;;;9.50;69.69;101786.09;10391285;28;20084;-77
2022/11/26 13:59:17;;;;;;;31.30;11.43;;;;;;;9.13;71.11;101781.84;10396531;28;20517;-77
2022/11/26 14:04:53;;;;;;;30.83;11.80;;;;;;;9.17;71.14;101775.38;10405092;28;20053;-77
2022/11/26 14:10:00;;;;;;;35.50;11.55;;;;;;;8.99;71.69;101774.50;10372500;28;20574;-76
2022/11/26 14:15:38;;;;;;;32.33;11.75;;;;;;;8.95;72.11;101773.81;10389479;28;20533;-77
2022/11/26 14:21:12;;;;;;;61.05;20.58;;;;;;;8.90;72.16;101767.81;10395641;28;20096;-77
2022/11/26 14:26:19;;;;;;;31.38;11.88;;;;;;;8.71;73.10;101765.22;10388543;28;20486;-77
2022/11/26 14:31:25;;;;;;;30.17;13.02;;;;;;;8.68;73.26;101764.53;10401553;28;20121;-77
2022/11/26 14:36:30;;;;;;;29.58;12.30;;;;;;;8.75;73.08;101763.25;10387735;28;20042;-77
2022/11/26 14:41:35;;;;;;;30.52;12.60;;;;;;;8.81;73.08;101765.63;10378067;28;20593;-77
2022/11/26 14:46:38;;;;;;;31.27;11.55;;;;;;;8.68;73.55;101768.06;10377178;28;20073;-77
2022/11/26 14:51:45;;;;;;;35.22;11.43;;;;;;;8.77;72.94;101761.38;10395524;28;20081;-77
2022/11/26 14:56:49;;;;;;;35.40;11.60;;;;;;;8.72;73.23;101758.94;10392489;28;20084;-77
2022/11/26 15:01:51;;;;;;;29.80;10.38;;;;;;;8.70;73.23;101751.94;10398525;28;20491;-76
2022/11/26 15:06:57;;;;;;;26.40;11.02;;;;;;;8.63;73.28;101754.03;10389455;28;20037;-77
2022/11/26 15:12:04;;;;;;;27.70;9.23;;;;;;;8.58;73.36;101748.94;10412812;28;20060;-77
2022/11/26 15:17:12;;;;;;;27.85;9.50;;;;;;;8.54;73.32;101744.66;10380076;28;20125;-76
2022/11/26 15:22:22;;;;;;;20.98;7.68;;;;;;;8.53;73.33;101750.97;10425126;22;20047;-77
2022/11/26 15:27:30;;;;;;;20.42;7.72;;;;;;;8.49;73.29;101741.34;10486940;28;20045;-78
2022/11/26 15:32:33;;;;;;;30.33;7.88;;;;;;;8.43;73.33;101736.28;10475503;28;20441;-77
2022/11/26 15:37:38;;;;;;;31.65;8.90;;;;;;;8.38;73.54;101738.31;10467703;28;20386;-78
2022/11/26 15:42:40;;;;;;;25.45;7.90;;;;;;;8.35;73.53;101742.03;10467514;28;20060;-79
2022/11/26 15:47:47;;;;;;;34.67;9.82;;;;;;;8.30;73.52;101743.19;10454770;28;20056;-79
2022/11/26 15:52:56;;;;;;;30.55;10.40;;;;;;;8.25;73.84;101738.06;10471977;28;20057;-78
2022/11/26 15:58:02;;;;;;;29.67;12.38;;;;;;;8.19;73.93;101735.69;10476139;28;20048;-79
2022/11/26 16:03:40;;;;;;;28.23;11.98;;;;;;;8.14;74.34;101743.94;10473919;28;20498;-78
2022/11/26 16:08:58;;;;;;;33.65;14.40;;;;;;;8.05;74.69;101752.44;10475191;28;20440;-78
2022/11/26 16:14:22;;;;;;;32.00;13.93;;;;;;;8.05;74.45;101755.09;10469616;28;20409;-78
2022/11/26 16:19:28;;;;;;;23.40;9.90;;;;;;;8.06;74.47;101761.31;10475953;28;20444;-78
2022/11/26 16:24:35;;;;;;;24.52;7.78;;;;;;;8.08;73.86;101762.13;10448297;28;20084;-78
2022/11/26 16:29:38;;;;;;;16.75;8.38;;;;;;;8.10;73.84;101761.09;10445936;28;20047;-78
2022/11/26 16:34:41;;;;;;;23.00;8.68;;;;;;;8.08;73.72;101759.44;10445403;28;20075;-79
2022/11/26 16:39:46;;;;;;;29.50;8.52;;;;;;;8.07;73.46;101763.06;10463258;28;20084;-80
2022/11/26 16:44:49;;;;;;;19.00;6.90;;;;;;;8.03;73.26;101765.00;10461988;28;20053;-79
2022/11/26 16:49:52;;;;;;;33.95;9.57;;;;;;;8.10;72.53;101763.78;10462786;28;20045;-79
2022/11/26 16:54:58;;;;;;;29.58;10.85;;;;;;;8.09;72.15;101753.13;10466514;28;20037;-78
2022/11/26 17:00:05;;;;;;;21.73;8.35;;;;;;;8.09;71.61;101750.47;10478510;28;20045;-79
2022/11/26 17:05:08;;;;;;;21.55;7.20;;;;;;;8.13;71.56;101746.72;10440139;28;20469;-78
2022/11/26 17:10:15;;;;;;;14.20;6.05;;;;;;;8.13;70.97;101744.91;10470843;28;20045;-79
2022/11/26 17:15:18;;;;;;;19.63;7.50;;;;;;;8.10;70.78;101737.03;10472753;28;20048;-78
2022/11/26 17:20:24;;;;;;;24.70;7.25;;;;;;;8.04;70.81;101742.69;10462000;28;20036;-79
2022/11/26 17:25:28;;;;;;;17.40;6.38;;;;;;;8.11;70.43;101745.91;10461413;28;20056;-78
2022/11/26 17:30:31;;;;;;;23.38;6.50;;;;;;;8.05;70.56;101749.75;10468544;28;20045;-79
2022/11/26 17:35:34;;;;;;;15.07;5.68;;;;;;;8.08;70.54;101741.56;10471178;28;20391;-78
2022/11/26 17:40:38;;;;;;;17.15;5.22;;;;;;;7.90;71.10;101745.16;10470860;28;20477;-79
2022/11/26 17:45:41;;;;;;;17.58;5.90;;;;;;;7.98;70.82;101744.78;10452669;28;20071;-79
2022/11/26 17:50:44;;;;;;;19.52;6.25;;;;;;;7.98;70.57;101748.34;10451756;28;20049;-79
2022/11/26 17:55:49;;;;;;;14.82;6.10;;;;;;;7.97;70.51;101740.38;10462076;28;20478;-80
2022/11/26 18:00:51;;;;;;;15.57;5.65;;;;;;;7.90;70.52;101748.72;10445229;28;20045;-80
2022/11/26 18:05:54;;;;;;;15.98;5.43;;;;;;;7.84;70.56;101729.38;10463284;28;20037;-79
2022/11/26 18:10:58;;;;;;;22.35;7.18;;;;;;;7.96;70.33;101736.84;10462411;28;20037;-78
2022/11/26 18:16:02;;;;;;;17.88;6.28;;;;;;;7.85;70.56;101742.69;10461670;28;20055;-78
2022/11/26 18:21:05;;;;;;;24.55;9.70;;;;;;;7.86;70.68;101749.78;10468581;28;20061;-78
2022/11/26 18:26:17;;;;;;;19.88;7.32;;;;;;;7.85;70.78;101744.53;10468769;28;20045;-80
2022/11/26 18:31:20;;;;;;;21.63;9.67;;;;;;;7.80;70.70;101750.06;10440512;28;20607;-79
2022/11/26 18:36:23;;;;;;;22.13;8.18;;;;;;;7.78;70.93;101749.28;10439925;28;20128;-80
2022/11/26 18:41:27;;;;;;;24.08;7.18;;;;;;;7.79;70.76;101753.72;10462267;28;20052;-78
2022/11/26 18:46:31;;;;;;;21.42;8.23;;;;;;;7.72;70.92;101745.09;10493749;28;20113;-79
2022/11/26 18:51:34;;;;;;;21.60;7.05;;;;;;;7.67;71.00;101744.44;10450769;28;20057;-79
2022/11/26 18:56:38;;;;;;;20.63;6.47;;;;;;;7.57;71.13;101734.25;10458009;28;20057;-78
2022/11/26 19:01:42;;;;;;;19.08;5.97;;;;;;;7.54;71.27;101739.72;10470285;28;20067;-79
2022/11/26 19:06:45;;;;;;;21.20;6.20;;;;;;;7.45;71.29;101731.19;10465836;28;20091;-79
2022/11/26 19:11:52;;;;;;;17.30;7.68;;;;;;;7.37;71.50;101714.66;10458259;28;20041;-79
2022/11/26 19:16:55;;;;;;;15.68;6.20;;;;;;;7.29;71.63;101722.16;10459389;28;20037;-79
2022/11/26 19:21:58;;;;;;;13.80;5.57;;;;;;;7.21;71.85;101733.22;10460261;28;20037;-79
2022/11/26 19:27:05;;;;;;;19.08;6.40;;;;;;;7.16;71.95;101739.69;10461908;28;20037;-80
2022/11/26 19:32:07;;;;;;;18.67;5.25;;;;;;;7.10;72.05;101737.28;10460926;28;20049;-79
2022/11/26 19:37:10;;;;;;;19.27;6.43;;;;;;;7.00;72.19;101731.50;10467923;28;20133;-80
2022/11/26 19:42:15;;;;;;;17.95;5.93;;;;;;;6.91;72.33;101721.22;10455507;28;20053;-80
2022/11/26 19:47:17;;;;;;;17.45;7.30;;;;;;;6.82;72.31;101726.00;10493906;28;20040;-79
2022/11/26 19:52:20;;;;;;;20.42;7.13;;;;;;;6.75;72.54;101716.53;10469619;28;20116;-80
2022/11/26 19:57:26;;;;;;;29.52;14.15;;;;;;;6.69;72.62;101722.16;10473709;28;20041;-79
2022/11/26 20:02:28;;;;;;;31.88;14.15;;;;;;;6.58;72.77;101708.38;10454807;28;20049;-80
2022/11/26 20:07:31;;;;;;;23.55;9.88;;;;;;;6.45;72.83;101704.53;10469953;28;20098;-77
2022/11/26 20:12:36;;;;;;;25.17;8.82;;;;;;;6.33;73.24;101713.91;10463336;28;20128;-79
2022/11/26 20:17:38;;;;;;;24.05;8.38;;;;;;;6.21;73.67;101712.63;10445653;28;20068;-76
2022/11/26 20:22:42;;;;;;;18.95;7.82;;;;;;;6.15;73.58;101712.88;10463061;28;20082;-77
2022/11/26 20:27:46;;;;;;;20.98;6.80;;;;;;;6.10;74.01;101709.53;10463180;28;20049;-77
2022/11/26 20:32:49;;;;;;;20.02;8.63;;;;;;;6.05;74.08;101708.84;10487536;28;20068;-79
2022/11/26 20:37:52;;;;;;;15.95;6.65;;;;;;;5.94;74.11;101698.63;10451394;28;20048;-79
2022/11/26 20:42:56;;;;;;;15.15;6.68;;;;;;;5.91;74.15;101701.41;10466677;28;20477;-79
2022/11/26 20:47:59;;;;;;;25.70;9.38;;;;;;;5.85;74.45;101713.19;10465027;28;20068;-78
2022/11/26 20:53:02;;;;;;;22.67;10.48;;;;;;;5.81;74.31;101716.91;10445642;28;20140;-79
2022/11/26 20:58:06;;;;;;;15.70;7.75;;;;;;;5.79;74.68;101718.78;10443879;28;20052;-78
2022/11/26 21:03:09;;;;;;;32.25;14.10;;;;;;;5.78;74.82;101727.69;10442553;28;20476;-79
2022/11/26 21:08:12;;;;;;;23.25;9.95;;;;;;;5.75;74.81;101733.16;10472492;28;20040;-79
2022/11/26 21:13:18;;;;;;;21.50;9.65;;;;;;;5.73;74.86;101735.00;10469573;28;20049;-77
2022/11/26 21:18:21;;;;;;;27.05;10.48;;;;;;;5.68;74.96;101742.34;10498996;28;20041;-79
2022/11/26 21:23:24;;;;;;;23.70;9.80;;;;;;;5.61;75.00;101768.34;10465095;28;20041;-79
2022/11/26 21:28:28;;;;;;;25.02;11.25;;;;;;;5.50;75.31;101773.22;10465569;28;20040;-79
2022/11/26 21:33:31;;;;;;;31.27;13.50;;;;;;;5.38;75.91;101769.22;10464794;28;20053;-79
2022/11/26 21:38:34;;;;;;;31.67;15.45;;;;;;;5.28;76.36;101771.34;10445738;28;20088;-78
2022/11/26 21:43:39;;;;;;;24.63;12.45;;;;;;;5.22;76.74;101762.72;10462907;28;20044;-79
2022/11/26 21:48:42;;;;;;;30.77;14.07;;;;;;;5.13;77.13;101750.63;10463422;28;20041;-79
2022/11/26 21:53:45;;;;;;;25.23;13.75;;;;;;;5.06;77.32;101775.72;10438259;28;20110;-78
2022/11/26 21:58:50;;;;;;;25.83;12.57;;;;;;;5.04;77.35;101783.75;10444772;28;20045;-78
2022/11/26 22:03:55;;;;;;;24.33;12.50;;;;;;;5.06;77.36;101783.72;10468235;28;20075;-78
2022/11/26 22:09:06;;;;;;;34.50;18.50;;;;;;;5.01;77.34;101777.69;10472865;28;20052;-79
2022/11/26 22:14:13;;;;;;;32.63;15.20;;;;;;;5.00;77.49;101749.31;10461292;28;20664;-80
2022/11/26 22:19:15;;;;;;;33.75;16.55;;;;;;;5.01;77.47;101749.25;10463117;28;20072;-80
2022/11/26 22:24:20;;;;;;;32.95;14.85;;;;;;;4.95;77.38;101745.91;10486138;28;20489;-80
2022/11/26 22:29:24;;;;;;;29.40;13.55;;;;;;;4.96;77.43;101721.88;10464541;28;20051;-80
2022/11/26 22:34:28;;;;;;;25.85;12.95;;;;;;;4.91;77.35;101717.63;10463160;28;20080;-80
2022/11/26 22:39:30;;;;;;;28.45;14.02;;;;;;;4.78;77.50;101703.91;10462234;28;20398;-80
2022/11/26 22:44:35;;;;;;;28.83;14.15;;;;;;;4.82;77.50;101710.84;10464536;28;20080;-80
2022/11/26 22:49:37;;;;;;;31.50;15.25;;;;;;;4.84;77.67;101706.34;10463916;28;20216;-80
2022/11/26 22:54:41;;;;;;;30.25;16.48;;;;;;;4.80;77.55;101696.72;10459472;28;20053;-80
2022/11/26 22:59:45;;;;;;;37.13;17.38;;;;;;;4.79;77.69;101689.69;10463234;28;20045;-80
2022/11/26 23:04:48;;;;;;;35.42;19.10;;;;;;;4.67;78.09;101698.13;10461247;28;20048;-80
2022/11/26 23:09:51;;;;;;;39.75;20.77;;;;;;;4.62;78.37;101683.16;10491434;28;20045;-80
2022/11/26 23:14:55;;;;;;;44.95;22.70;;;;;;;4.60;78.73;101679.66;10476944;28;20049;-80
2022/11/26 23:19:58;;;;;;;42.00;21.05;;;;;;;4.60;78.95;101684.13;10470568;28;20045;-80